Time;durP1;ratioP1;P1;durP2;ratioP2;P2;SDS_P1;SDS_P2;PMS_P1;PMS_P2;Temp;Humidity;BMP_temperature;BMP_pressure;BME280_temperature;BME280_humidity;BME280_pressure;Samples;Min_cycle;Max_cycle;Signal;HPM_P1;HPM_P2
2022/02/12 00:00:10;;;;;;;13.98;8.30;;;;;;;-0.50;100.00;103322.41;5071331;28;20047;-55
2022/02/12 00:02:38;;;;;;;23.02;10.07;;;;;;;-0.50;100.00;103325.00;5066426;28;20419;-56
2022/02/12 00:05:06;;;;;;;18.25;8.68;;;;;;;-0.54;100.00;103321.47;5061330;28;20064;-54
2022/02/12 00:07:36;;;;;;;18.63;9.88;;;;;;;-0.59;100.00;103333.41;5063452;28;20063;-53
2022/02/12 00:10:06;;;;;;;17.92;9.55;;;;;;;-0.53;100.00;103328.38;5072485;28;20048;-55
2022/02/12 00:12:34;;;;;;;18.20;8.48;;;;;;;-0.49;100.00;103333.63;5071171;28;20044;-51
2022/02/12 00:15:05;;;;;;;17.40;8.88;;;;;;;-0.58;100.00;103324.81;5069758;28;20140;-53
2022/02/12 00:17:33;;;;;;;16.88;8.30;;;;;;;-0.54;100.00;103318.00;5052201;28;20422;-53
2022/02/12 00:20:01;;;;;;;18.25;8.38;;;;;;;-0.57;100.00;103321.41;5084843;28;20705;-53
2022/02/12 00:22:29;;;;;;;18.98;8.90;;;;;;;-0.60;100.00;103321.34;5052381;28;20068;-55
2022/02/12 00:24:59;;;;;;;16.13;8.20;;;;;;;-0.65;100.00;103312.63;5052550;28;20049;-56
2022/02/12 00:27:28;;;;;;;17.50;7.95;;;;;;;-0.63;100.00;103317.81;5057680;28;20071;-53
2022/02/12 00:29:57;;;;;;;22.17;8.65;;;;;;;-0.83;100.00;103314.78;5071695;28;20467;-53
2022/02/12 00:32:25;;;;;;;21.13;8.48;;;;;;;-0.84;100.00;103320.81;5072132;28;20437;-55
2022/02/12 00:34:53;;;;;;;17.48;7.78;;;;;;;-0.87;100.00;103313.88;5072180;28;20053;-54
2022/02/12 00:37:21;;;;;;;17.58;8.93;;;;;;;-0.79;100.00;103311.44;5066385;28;20060;-52
2022/02/12 00:39:49;;;;;;;19.60;8.40;;;;;;;-0.87;100.00;103312.16;5072046;28;20576;-54
2022/02/12 00:42:18;;;;;;;16.75;8.00;;;;;;;-0.84;100.00;103307.91;5071327;28;20040;-52
2022/02/12 00:44:47;;;;;;;19.92;9.00;;;;;;;-0.91;100.00;103305.16;5060391;28;20090;-44
2022/02/12 00:47:15;;;;;;;17.83;8.18;;;;;;;-0.88;100.00;103304.38;5050332;28;20057;-51
2022/02/12 00:49:44;;;;;;;15.75;8.43;;;;;;;-1.00;100.00;103299.78;5051752;28;20052;-54
2022/02/12 00:52:12;;;;;;;19.45;8.00;;;;;;;-1.05;100.00;103298.81;5051918;28;20530;-53
2022/02/12 00:54:40;;;;;;;16.67;7.43;;;;;;;-1.00;100.00;103297.22;5052812;28;20051;-54
2022/02/12 00:57:09;;;;;;;19.80;7.82;;;;;;;-0.96;100.00;103295.56;5051983;28;20841;-51
2022/02/12 00:59:38;;;;;;;17.80;8.38;;;;;;;-1.06;100.00;103292.78;5051142;28;20143;-53
2022/02/12 01:02:07;;;;;;;18.30;8.18;;;;;;;-1.03;100.00;103294.56;5060850;28;20131;-54
2022/02/12 01:04:36;;;;;;;15.93;8.35;;;;;;;-1.02;100.00;103291.16;5067807;28;20037;-52
2022/02/12 01:07:04;;;;;;;19.33;7.65;;;;;;;-1.14;100.00;103296.91;5051930;28;20072;-53
2022/02/12 01:09:32;;;;;;;20.05;8.60;;;;;;;-1.08;100.00;103296.16;5051993;28;20057;-54
2022/02/12 01:12:01;;;;;;;16.45;8.48;;;;;;;-1.13;100.00;103298.66;5051235;28;20136;-44
2022/02/12 01:14:29;;;;;;;17.88;7.75;;;;;;;-1.12;100.00;103299.50;5048957;28;20059;-45
2022/02/12 01:16:57;;;;;;;22.67;8.45;;;;;;;-1.16;100.00;103295.13;5064305;28;20345;-45
2022/02/12 01:19:27;;;;;;;17.60;8.45;;;;;;;-1.15;100.00;103294.28;5071901;28;20064;-45
2022/02/12 01:21:55;;;;;;;20.00;7.88;;;;;;;-1.21;100.00;103292.44;5070535;28;20083;-47
2022/02/12 01:24:23;;;;;;;16.70;7.68;;;;;;;-1.16;100.00;103295.97;5071918;28;20119;-50
2022/02/12 01:26:51;;;;;;;19.85;8.68;;;;;;;-1.13;100.00;103287.44;5069040;28;20102;-50
2022/02/12 01:29:19;;;;;;;14.27;7.28;;;;;;;-1.22;100.00;103283.81;5071769;28;20076;-46
2022/02/12 01:31:47;;;;;;;17.63;7.90;;;;;;;-1.29;100.00;103279.34;5069516;28;20045;-53
2022/02/12 01:34:15;;;;;;;16.95;8.27;;;;;;;-1.22;100.00;103285.53;5067615;28;20422;-46
2022/02/12 01:36:44;;;;;;;17.88;8.07;;;;;;;-1.32;100.00;103287.03;5063323;28;20106;-46
2022/02/12 01:39:12;;;;;;;14.75;7.63;;;;;;;-1.28;100.00;103277.63;5051810;28;20041;-53
2022/02/12 01:41:40;;;;;;;14.13;8.18;;;;;;;-1.34;100.00;103275.78;5051621;28;20400;-55
2022/02/12 01:44:10;;;;;;;15.75;7.38;;;;;;;-1.33;100.00;103274.09;5054277;28;20049;-46
2022/02/12 01:46:39;;;;;;;17.48;8.18;;;;;;;-1.41;100.00;103281.63;5059017;28;20084;-46
2022/02/12 01:49:07;;;;;;;18.17;7.57;;;;;;;-1.48;100.00;103269.44;5051513;28;20380;-46
2022/02/12 01:51:36;;;;;;;16.90;7.85;;;;;;;-1.49;100.00;103278.84;5051421;28;20072;-44
2022/02/12 01:54:05;;;;;;;18.33;7.53;;;;;;;-1.39;100.00;103264.47;5053329;28;20087;-54
2022/02/12 01:56:33;;;;;;;14.70;7.93;;;;;;;-1.46;100.00;103266.06;5055203;28;20479;-51
2022/02/12 01:59:01;;;;;;;18.98;7.95;;;;;;;-1.48;100.00;103274.59;5053021;28;20135;-54
2022/02/12 02:01:30;;;;;;;15.35;7.60;;;;;;;-1.53;100.00;103271.88;5051435;28;20419;-54
2022/02/12 02:03:58;;;;;;;20.52;8.15;;;;;;;-1.57;100.00;103273.53;5054236;28;20391;-52
2022/02/12 02:06:26;;;;;;;18.63;7.68;;;;;;;-1.55;100.00;103266.69;5055192;28;20099;-44
2022/02/12 02:08:54;;;;;;;16.27;7.07;;;;;;;-1.58;100.00;103258.88;5055087;28;20128;-45
2022/02/12 02:11:24;;;;;;;18.50;7.60;;;;;;;-1.60;100.00;103259.66;5054864;28;20083;-44
2022/02/12 02:13:53;;;;;;;17.48;7.75;;;;;;;-1.62;100.00;103257.06;5056956;28;20049;-44
2022/02/12 02:16:21;;;;;;;18.00;7.80;;;;;;;-1.66;100.00;103252.66;5055043;28;20071;-54
2022/02/12 02:18:49;;;;;;;20.42;7.93;;;;;;;-1.67;100.00;103247.47;5051089;28;20114;-45
2022/02/12 02:21:18;;;;;;;13.23;6.78;;;;;;;-1.70;100.00;103243.97;5051489;28;20041;-43
2022/02/12 02:23:48;;;;;;;20.13;7.85;;;;;;;-1.73;100.00;103237.88;5056452;28;20040;-47
2022/02/12 02:26:16;;;;;;;14.95;7.38;;;;;;;-1.76;100.00;103236.09;5055279;28;20048;-45
2022/02/12 02:28:44;;;;;;;16.77;7.70;;;;;;;-1.83;100.00;103233.31;5054472;28;20041;-45
2022/02/12 02:31:12;;;;;;;18.73;7.35;;;;;;;-1.85;100.00;103232.38;5054540;28;20049;-44
2022/02/12 02:33:41;;;;;;;13.93;7.53;;;;;;;-1.72;100.00;103231.84;5053514;28;20045;-43
2022/02/12 02:36:10;;;;;;;15.10;6.97;;;;;;;-1.70;100.00;103225.03;5054832;28;20443;-43
2022/02/12 02:38:38;;;;;;;17.95;7.63;;;;;;;-1.71;100.00;103223.28;5052322;28;20045;-54
2022/02/12 02:41:07;;;;;;;14.23;6.88;;;;;;;-1.73;100.00;103228.41;5049220;28;20068;-51
2022/02/12 02:43:36;;;;;;;15.80;6.88;;;;;;;-1.72;100.00;103214.69;5053577;28;20094;-55
2022/02/12 02:46:04;;;;;;;15.60;6.82;;;;;;;-1.74;100.00;103200.00;5051802;28;20484;-55
2022/02/12 02:48:32;;;;;;;15.40;6.95;;;;;;;-1.76;100.00;103209.38;5051120;28;20519;-55
2022/02/12 02:56:34;;;;;;;15.50;6.38;;;;;;;-1.93;100.00;103202.13;5057746;28;20174;-56
2022/02/12 02:59:03;;;;;;;14.70;7.65;;;;;;;-1.92;100.00;103203.88;5053949;28;20057;-55
2022/02/12 03:01:31;;;;;;;17.15;8.20;;;;;;;-1.92;100.00;103200.41;5052220;28;20090;-56
2022/02/12 03:03:59;;;;;;;19.23;7.57;;;;;;;-1.90;100.00;103197.00;5049486;28;20049;-54
2022/02/12 03:06:28;;;;;;;15.77;7.15;;;;;;;-1.92;100.00;103184.94;5056573;28;20404;-55
2022/02/12 03:08:57;;;;;;;14.80;6.68;;;;;;;-1.95;100.00;103190.00;5070337;28;20658;-43
2022/02/12 03:11:26;;;;;;;13.48;6.38;;;;;;;-2.00;100.00;103184.75;5053271;28;20044;-47
2022/02/12 03:13:56;;;;;;;15.77;7.28;;;;;;;-2.01;100.00;103185.56;5054036;28;20033;-43
2022/02/12 03:16:24;;;;;;;15.90;6.57;;;;;;;-2.04;100.00;103176.06;5053894;28;20124;-45
2022/02/12 03:18:52;;;;;;;18.08;7.28;;;;;;;-2.10;100.00;103169.88;5052102;28;20049;-49
2022/02/12 03:21:21;;;;;;;16.73;6.68;;;;;;;-2.14;100.00;103168.03;5050019;28;20146;-52
2022/02/12 03:23:49;;;;;;;15.23;6.65;;;;;;;-2.08;100.00;103160.47;5053992;28;20433;-53
2022/02/12 03:26:18;;;;;;;17.25;6.53;;;;;;;-2.12;100.00;103161.25;5073295;28;20048;-55
2022/02/12 03:28:46;;;;;;;16.40;6.65;;;;;;;-2.13;100.00;103160.34;5067705;28;20044;-52
2022/02/12 03:31:16;;;;;;;16.95;6.70;;;;;;;-2.16;100.00;103155.13;5073203;28;20043;-54
2022/02/12 03:33:44;;;;;;;13.93;6.40;;;;;;;-2.12;100.00;103159.50;5070306;28;20048;-54
2022/02/12 03:36:13;;;;;;;13.75;6.43;;;;;;;-2.16;100.00;103162.00;5069226;28;20164;-53
2022/02/12 03:38:47;;;;;;;16.67;7.72;;;;;;;-2.16;100.00;103162.84;5061277;28;20061;-44
2022/02/12 03:41:16;;;;;;;15.65;6.50;;;;;;;-2.14;100.00;103162.88;5053201;28;20522;-56
2022/02/12 03:43:44;;;;;;;16.15;6.40;;;;;;;-2.15;100.00;103156.88;5053150;28;20080;-54
2022/02/12 03:46:12;;;;;;;13.57;5.90;;;;;;;-2.23;100.00;103159.25;5052554;28;20435;-54
2022/02/12 03:48:42;;;;;;;15.95;6.82;;;;;;;-2.16;100.00;103151.69;5049436;28;20041;-55
2022/02/12 03:51:10;;;;;;;17.20;7.05;;;;;;;-2.14;100.00;103157.72;5050654;28;20053;-54
2022/02/12 03:53:38;;;;;;;13.85;6.05;;;;;;;-2.18;100.00;103153.34;5050412;28;20053;-54
2022/02/12 03:56:06;;;;;;;16.60;6.43;;;;;;;-2.22;100.00;103161.00;5047696;28;20155;-55
2022/02/12 03:58:34;;;;;;;14.48;6.07;;;;;;;-2.19;100.00;103159.34;5052296;28;20049;-54
2022/02/12 04:01:02;;;;;;;12.25;6.43;;;;;;;-2.20;100.00;103158.47;5057708;28;20120;-55
2022/02/12 04:03:31;;;;;;;14.45;6.50;;;;;;;-2.23;100.00;103158.38;5052790;28;20041;-54
2022/02/12 04:06:00;;;;;;;14.57;6.40;;;;;;;-2.26;100.00;103158.31;5052854;28;20049;-51
2022/02/12 04:08:28;;;;;;;18.20;6.63;;;;;;;-2.24;100.00;103148.91;5052750;28;20059;-55
2022/02/12 04:10:56;;;;;;;13.10;6.32;;;;;;;-2.28;100.00;103149.66;5061038;28;20475;-55
2022/02/12 04:13:25;;;;;;;13.85;6.60;;;;;;;-2.30;100.00;103149.63;5069172;28;20060;-54
2022/02/12 04:15:53;;;;;;;13.75;5.80;;;;;;;-2.27;100.00;103141.97;5071690;28;20124;-52
2022/02/12 04:18:21;;;;;;;13.60;6.72;;;;;;;-2.38;100.00;103133.09;5057922;28;20059;-44
2022/02/12 04:20:49;;;;;;;11.60;5.90;;;;;;;-2.35;100.00;103140.88;5052585;28;20124;-46
2022/02/12 04:23:18;;;;;;;16.42;6.25;;;;;;;-2.34;100.00;103141.78;5052332;28;20087;-46
2022/02/12 04:25:46;;;;;;;16.30;6.55;;;;;;;-2.41;100.00;103136.47;5052481;28;20037;-46
2022/02/12 04:28:15;;;;;;;14.73;6.28;;;;;;;-2.39;100.00;103127.06;5055861;28;20601;-48
2022/02/12 04:30:43;;;;;;;12.90;6.32;;;;;;;-2.41;100.00;103135.59;5068009;28;20076;-45
2022/02/12 04:33:12;;;;;;;13.05;6.20;;;;;;;-2.47;100.00;103133.72;5070486;28;20064;-54
2022/02/12 04:35:40;;;;;;;15.98;6.28;;;;;;;-2.43;100.00;103135.53;5072123;28;20061;-54
2022/02/12 04:38:10;;;;;;;13.45;5.85;;;;;;;-2.40;100.00;103133.06;5069528;28;20048;-47
2022/02/12 04:40:39;;;;;;;13.80;5.95;;;;;;;-2.42;100.00;103126.13;5056859;28;20056;-44
2022/02/12 04:43:07;;;;;;;15.60;6.13;;;;;;;-2.33;100.00;103128.03;5072148;28;20052;-44
2022/02/12 04:45:35;;;;;;;14.88;5.72;;;;;;;-2.38;100.00;103122.78;5072376;28;20086;-43
2022/02/12 04:48:03;;;;;;;14.82;5.55;;;;;;;-2.34;100.00;103121.16;5069780;28;20131;-54
2022/02/12 04:50:32;;;;;;;15.48;5.97;;;;;;;-2.40;100.00;103117.59;5065377;28;20132;-47
2022/02/12 04:53:00;;;;;;;18.20;6.28;;;;;;;-2.38;100.00;103120.19;5071432;28;20402;-46
2022/02/12 04:55:28;;;;;;;14.95;6.25;;;;;;;-2.38;100.00;103113.31;5059861;28;20068;-55
2022/02/12 04:57:58;;;;;;;13.18;5.97;;;;;;;-2.35;100.00;103099.66;5052045;28;20071;-45
2022/02/12 05:00:26;;;;;;;12.20;6.50;;;;;;;-2.40;100.00;103103.81;5061117;28;20045;-44
2022/02/12 05:02:54;;;;;;;12.05;4.97;;;;;;;-2.42;100.00;103096.03;5072348;28;20044;-44
2022/02/12 05:05:22;;;;;;;18.73;6.30;;;;;;;-2.50;100.00;103097.56;5068636;28;20049;-47
2022/02/12 05:07:50;;;;;;;10.77;5.47;;;;;;;-2.52;100.00;103101.81;5068337;28;20068;-55
2022/02/12 05:10:18;;;;;;;17.17;6.43;;;;;;;-2.50;100.00;103099.28;5065964;28;20521;-54
2022/02/12 05:12:46;;;;;;;15.52;5.78;;;;;;;-2.47;100.00;103084.75;5052143;28;20068;-55
2022/02/12 05:15:15;;;;;;;15.88;5.90;;;;;;;-2.55;100.00;103087.16;5051798;28;20045;-54
2022/02/12 05:17:43;;;;;;;12.95;5.80;;;;;;;-2.53;100.00;103076.88;5048793;28;20085;-54
2022/02/12 05:20:12;;;;;;;15.38;6.00;;;;;;;-2.56;100.00;103061.34;5047936;28;20933;-48
2022/02/12 05:22:40;;;;;;;22.77;6.30;;;;;;;-2.45;100.00;103064.19;5051640;28;20041;-54
2022/02/12 05:25:09;;;;;;;15.23;5.60;;;;;;;-2.52;100.00;103063.16;5051722;28;20052;-44
2022/02/12 05:27:37;;;;;;;14.73;6.22;;;;;;;-2.53;100.00;103064.00;5053318;28;20076;-54
2022/02/12 05:30:06;;;;;;;18.33;6.20;;;;;;;-2.54;100.00;103064.81;5055896;28;20114;-44
2022/02/12 05:32:36;;;;;;;15.27;5.65;;;;;;;-2.52;100.00;103064.84;5056820;28;20483;-44
2022/02/12 05:35:04;;;;;;;14.82;6.95;;;;;;;-2.55;100.00;103057.91;5055786;28;20049;-56
2022/02/12 05:37:33;;;;;;;14.32;6.03;;;;;;;-2.51;100.00;103058.88;5055875;28;20080;-46
2022/02/12 05:40:01;;;;;;;13.32;6.60;;;;;;;-2.57;100.00;103052.72;5075026;28;20052;-47
2022/02/12 05:42:29;;;;;;;18.05;7.00;;;;;;;-2.57;100.00;103044.13;5066329;28;20135;-55
2022/02/12 05:44:57;;;;;;;17.50;7.55;;;;;;;-2.57;100.00;103049.28;5055282;28;20045;-52
2022/02/12 05:47:25;;;;;;;11.23;6.38;;;;;;;-2.58;100.00;103051.00;5055081;28;20072;-43
2022/02/12 05:49:56;;;;;;;14.52;6.22;;;;;;;-2.59;100.00;103046.69;5055246;28;20045;-44
2022/02/12 05:52:24;;;;;;;20.92;7.80;;;;;;;-2.59;100.00;103046.69;5054896;28;20045;-44
2022/02/12 05:54:52;;;;;;;21.80;8.05;;;;;;;-2.64;100.00;103045.69;5056534;28;20102;-44
2022/02/12 05:57:20;;;;;;;12.82;6.85;;;;;;;-2.55;100.00;103039.88;5059380;28;20049;-44
2022/02/12 05:59:50;;;;;;;20.20;7.68;;;;;;;-2.53;100.00;103034.78;5075196;28;20564;-45
2022/02/12 06:02:18;;;;;;;16.90;8.07;;;;;;;-2.52;100.00;103037.38;5075039;28;20045;-42
2022/02/12 06:04:46;;;;;;;19.33;9.60;;;;;;;-2.51;100.00;103033.09;5069474;28;20044;-47
2022/02/12 06:07:15;;;;;;;19.10;8.52;;;;;;;-2.50;100.00;103027.13;5074651;28;20438;-43
2022/02/12 06:09:43;;;;;;;23.65;8.98;;;;;;;-2.41;100.00;103025.63;5075300;28;20056;-42
2022/02/12 06:12:12;;;;;;;22.40;8.77;;;;;;;-2.29;100.00;103019.91;5074697;28;20056;-45
2022/02/12 06:14:40;;;;;;;19.60;8.75;;;;;;;-2.33;100.00;103007.78;5074812;28;20053;-43
2022/02/12 06:17:08;;;;;;;21.38;8.75;;;;;;;-2.31;100.00;103015.53;5074780;28;20048;-46
2022/02/12 06:19:36;;;;;;;23.55;9.18;;;;;;;-2.24;100.00;103009.69;5073195;28;20057;-45
2022/02/12 06:22:05;;;;;;;19.92;9.10;;;;;;;-2.22;100.00;102998.56;5074270;28;20040;-46
2022/02/12 06:24:34;;;;;;;22.67;8.80;;;;;;;-2.19;100.00;103009.81;5074354;28;20052;-46
2022/02/12 06:27:04;;;;;;;22.27;7.88;;;;;;;-2.14;100.00;103003.91;5074153;28;20495;-46
2022/02/12 06:29:32;;;;;;;19.60;8.95;;;;;;;-2.08;100.00;103003.16;5074450;28;20033;-54
2022/02/12 06:32:00;;;;;;;22.10;8.77;;;;;;;-2.06;100.00;102997.22;5074489;28;20510;-54
2022/02/12 06:34:28;;;;;;;18.67;8.40;;;;;;;-2.06;100.00;103001.47;5074196;28;20122;-55
2022/02/12 06:36:56;;;;;;;24.45;9.40;;;;;;;-2.05;100.00;102998.94;5074174;28;20066;-55
2022/02/12 06:39:24;;;;;;;21.38;8.10;;;;;;;-2.02;100.00;103000.72;5073734;28;20041;-56
2022/02/12 06:41:54;;;;;;;25.98;9.48;;;;;;;-2.09;100.00;102996.25;5074352;28;20064;-54
2022/02/12 06:44:22;;;;;;;19.02;8.18;;;;;;;-2.07;100.00;102999.75;5074220;28;20040;-56
2022/02/12 06:46:50;;;;;;;20.05;9.40;;;;;;;-1.95;100.00;103005.19;5074141;28;20136;-53
2022/02/12 06:49:19;;;;;;;24.33;8.63;;;;;;;-2.01;100.00;102999.88;5074108;28;20051;-54
2022/02/12 06:51:47;;;;;;;20.95;7.75;;;;;;;-2.04;100.00;102999.81;5074101;28;20109;-54
2022/02/12 06:54:15;;;;;;;17.98;7.75;;;;;;;-1.94;100.00;102999.16;5074146;28;20052;-55
2022/02/12 06:56:43;;;;;;;16.88;7.75;;;;;;;-1.98;100.00;102999.06;5074188;28;20040;-53
2022/02/12 06:59:12;;;;;;;15.43;7.63;;;;;;;-1.93;100.00;102997.47;5074305;28;20047;-54
2022/02/12 07:01:40;;;;;;;22.83;10.73;;;;;;;-1.87;100.00;102998.47;5074092;28;20098;-53
2022/02/12 07:04:08;;;;;;;20.63;7.82;;;;;;;-1.80;100.00;103006.31;5073561;28;20047;-55
2022/02/12 07:06:37;;;;;;;15.57;7.45;;;;;;;-1.78;100.00;103002.94;5073880;28;20135;-51
2022/02/12 07:09:07;;;;;;;19.88;7.80;;;;;;;-1.85;100.00;102998.50;5073715;28;20083;-54
2022/02/12 07:11:35;;;;;;;21.92;7.75;;;;;;;-1.82;100.00;102995.97;5073761;28;20040;-52
2022/02/12 07:14:03;;;;;;;18.30;7.68;;;;;;;-1.80;100.00;102993.44;5073549;28;20045;-54
2022/02/12 07:16:33;;;;;;;16.55;7.25;;;;;;;-1.77;100.00;102985.75;5073685;28;20041;-54
2022/02/12 07:19:02;;;;;;;23.50;7.45;;;;;;;-1.70;100.00;102995.38;5073454;28;20079;-53
2022/02/12 07:21:31;;;;;;;28.85;9.30;;;;;;;-1.69;100.00;102986.81;5073492;28;20396;-55
2022/02/12 07:23:59;;;;;;;20.30;7.72;;;;;;;-1.74;100.00;102993.56;5073633;28;20047;-56
2022/02/12 07:26:27;;;;;;;14.10;6.90;;;;;;;-1.68;100.00;102988.53;5073552;28;20480;-55
2022/02/12 07:28:55;;;;;;;22.30;6.57;;;;;;;-1.64;100.00;102979.13;5073111;28;20507;-47
2022/02/12 07:31:23;;;;;;;16.50;7.53;;;;;;;-1.55;100.00;102974.16;5073305;28;20098;-44
2022/02/12 07:33:52;;;;;;;17.35;7.13;;;;;;;-1.57;100.00;102974.13;5073474;28;20067;-55
2022/02/12 07:36:21;;;;;;;14.68;6.20;;;;;;;-1.57;100.00;102974.13;5073210;28;20036;-44
2022/02/12 07:38:49;;;;;;;18.05;7.07;;;;;;;-1.54;100.00;102975.88;5073220;28;20041;-55
2022/02/12 07:41:17;;;;;;;20.48;7.75;;;;;;;-1.55;100.00;102977.59;5073226;28;20465;-43
2022/02/12 07:43:45;;;;;;;21.45;7.43;;;;;;;-1.57;100.00;102981.00;5072910;28;20063;-45
2022/02/12 07:46:14;;;;;;;18.13;7.30;;;;;;;-1.51;100.00;102975.06;5072831;28;20040;-54
2022/02/12 07:48:42;;;;;;;17.67;6.82;;;;;;;-1.55;100.00;102975.03;5072833;28;20049;-45
2022/02/12 07:51:14;;;;;;;15.05;6.95;;;;;;;-1.46;100.00;102973.47;5071860;28;20048;-55
2022/02/12 07:53:42;;;;;;;16.98;6.65;;;;;;;-1.35;100.00;102966.78;5073253;28;20437;-56
2022/02/12 07:56:12;;;;;;;19.85;7.57;;;;;;;-1.36;100.00;102968.50;5072590;28;20044;-55
2022/02/12 07:58:40;;;;;;;17.33;8.23;;;;;;;-1.24;100.00;102965.28;5072592;28;20068;-55
2022/02/12 08:01:08;;;;;;;18.00;7.18;;;;;;;-1.27;100.00;102961.75;5072559;28;20518;-44
2022/02/12 08:03:36;;;;;;;20.08;7.03;;;;;;;-1.22;100.00;102965.31;5072649;28;20388;-52
2022/02/12 08:07:27;;;;;;;18.40;7.18;;;;;;;-1.16;100.00;102959.38;5071484;28;20059;-44
2022/02/12 08:08:54;;;;;;;18.08;6.28;;;;;;;-1.06;100.00;102961.28;5072364;28;20052;-44
2022/02/12 08:11:26;;;;;;;13.15;6.65;;;;;;;-1.00;100.00;102963.09;5072275;28;20041;-55
2022/02/12 08:13:55;;;;;;;20.42;8.25;;;;;;;-0.88;100.00;102959.00;5072085;28;20503;-56
2022/02/12 08:16:23;;;;;;;13.95;6.38;;;;;;;-0.93;100.00;102955.47;5072490;28;20040;-45
2022/02/12 08:18:51;;;;;;;15.35;5.68;;;;;;;-0.99;100.00;102954.50;5072514;28;20052;-56
2022/02/12 08:21:19;;;;;;;14.95;6.03;;;;;;;-1.02;100.00;102960.50;5072504;28;20044;-45
2022/02/12 08:23:47;;;;;;;17.60;5.32;;;;;;;-0.93;100.00;102958.03;5071305;28;20539;-44
2022/02/12 08:26:17;;;;;;;22.08;7.07;;;;;;;-0.97;100.00;102957.97;5070969;28;20515;-55
2022/02/12 08:28:45;;;;;;;15.15;6.60;;;;;;;-0.94;100.00;102953.75;5072157;28;20547;-55
2022/02/12 08:31:13;;;;;;;16.20;6.00;;;;;;;-0.93;100.00;102955.47;5072286;28;20467;-54
2022/02/12 08:33:41;;;;;;;16.52;6.75;;;;;;;-0.93;100.00;102947.72;5072445;28;20056;-44
2022/02/12 08:36:10;;;;;;;16.25;6.55;;;;;;;-0.84;100.00;102952.19;5071877;28;20071;-44
2022/02/12 08:38:38;;;;;;;15.52;6.10;;;;;;;-0.72;100.00;102943.75;5072301;28;20464;-45
2022/02/12 08:41:06;;;;;;;18.17;5.75;;;;;;;-0.63;100.00;102946.47;5072273;28;20075;-44
2022/02/12 08:43:36;;;;;;;13.25;4.85;;;;;;;-0.52;100.00;102942.34;5072519;28;20052;-55
2022/02/12 08:46:04;;;;;;;16.77;5.40;;;;;;;-0.45;100.00;102939.81;5071963;28;20102;-54
2022/02/12 08:48:32;;;;;;;18.88;6.03;;;;;;;-0.43;100.00;102944.16;5072034;28;20483;-55
2022/02/12 08:51:00;;;;;;;15.85;5.68;;;;;;;-0.40;100.00;102936.44;5072114;28;20517;-43
2022/02/12 08:53:28;;;;;;;18.58;5.82;;;;;;;-0.30;100.00;102932.31;5070763;28;20052;-43
2022/02/12 08:55:56;;;;;;;14.82;5.60;;;;;;;-0.25;100.00;102940.97;5071810;28;20101;-55
2022/02/12 08:58:24;;;;;;;16.85;6.43;;;;;;;-0.13;100.00;102935.09;5071891;28;20095;-46
2022/02/12 09:00:54;;;;;;;16.45;6.10;;;;;;;-0.01;100.00;102934.41;5072219;28;20056;-44
2022/02/12 09:03:22;;;;;;;18.52;5.88;;;;;;;0.06;100.00;102933.63;5107355;28;20056;-43
2022/02/12 09:05:50;;;;;;;13.30;5.50;;;;;;;0.07;100.00;102925.00;5075878;28;20068;-54
2022/02/12 09:08:18;;;;;;;18.80;6.20;;;;;;;0.16;100.00;102922.53;5075510;28;20513;-50
2022/02/12 09:10:47;;;;;;;18.58;5.95;;;;;;;0.16;100.00;102919.06;5075666;28;20036;-54
2022/02/12 09:13:15;;;;;;;16.58;5.95;;;;;;;0.16;100.00;102921.66;5075831;28;20049;-51
2022/02/12 09:15:44;;;;;;;15.63;6.05;;;;;;;0.18;100.00;102919.97;5075888;28;20083;-50
2022/02/12 09:18:13;;;;;;;16.10;4.90;;;;;;;0.31;100.00;102919.25;5076054;28;20063;-55
2022/02/12 09:20:41;;;;;;;13.98;5.45;;;;;;;0.50;100.00;102917.72;5075989;28;20445;-53
2022/02/12 09:23:10;;;;;;;14.52;5.05;;;;;;;0.73;98.55;102916.19;5075779;28;20047;-53
2022/02/12 09:25:38;;;;;;;12.77;5.30;;;;;;;0.82;99.47;102917.16;5075922;28;20430;-53
2022/02/12 09:28:06;;;;;;;14.88;4.85;;;;;;;1.07;96.33;102904.38;5075672;28;20098;-51
2022/02/12 09:30:34;;;;;;;14.70;5.03;;;;;;;1.17;95.02;102913.97;5075749;28;20052;-52
2022/02/12 09:33:02;;;;;;;13.85;4.50;;;;;;;1.38;94.31;102904.59;5075629;28;20572;-52
2022/02/12 09:35:56;;;;;;;16.08;5.13;;;;;;;1.48;93.70;102901.19;5075479;28;20388;-53
2022/02/12 09:38:25;;;;;;;18.27;4.78;;;;;;;1.69;93.07;102891.78;5075669;28;20128;-53
2022/02/12 09:40:54;;;;;;;13.43;5.03;;;;;;;1.85;91.49;102895.31;5075609;28;20044;-54
2022/02/12 09:43:24;;;;;;;13.32;4.78;;;;;;;1.88;90.68;102889.28;5075446;28;20051;-52
2022/02/12 09:46:05;;;;;;;13.20;4.78;;;;;;;1.98;90.75;102886.72;5075533;28;20414;-54
2022/02/12 09:48:35;;;;;;;13.20;4.30;;;;;;;2.23;89.97;102881.59;5075222;28;20037;-54
2022/02/12 09:51:05;;;;;;;13.48;3.95;;;;;;;2.35;88.58;102875.56;5071912;28;20052;-54
2022/02/12 09:53:33;;;;;;;15.85;4.50;;;;;;;2.62;87.08;102879.94;5071849;28;20499;-53
2022/02/12 09:56:02;;;;;;;14.13;4.22;;;;;;;2.75;86.02;102875.59;5075084;28;20445;-54
2022/02/12 09:58:30;;;;;;;12.25;3.88;;;;;;;2.94;85.20;102865.22;5075331;28;20128;-54
2022/02/12 10:00:58;;;;;;;11.75;3.60;;;;;;;3.17;84.30;102868.63;5075237;28;20048;-55
2022/02/12 10:03:26;;;;;;;13.75;4.20;;;;;;;3.26;83.82;102859.06;5075064;28;20411;-55
2022/02/12 10:05:55;;;;;;;8.85;3.45;;;;;;;3.35;83.00;102856.47;5075214;28;20060;-54
2022/02/12 10:08:24;;;;;;;14.50;3.85;;;;;;;3.65;81.62;102847.69;5074973;28;20137;-55
2022/02/12 10:10:53;;;;;;;15.85;3.72;;;;;;;3.81;80.17;102843.28;5074901;28;20052;-53
2022/02/12 10:13:23;;;;;;;15.90;4.10;;;;;;;4.04;78.56;102837.09;5074779;28;20054;-55
2022/02/12 10:15:54;;;;;;;14.50;3.20;;;;;;;4.00;78.38;102831.03;5074111;28;20762;-57
2022/02/12 10:18:23;;;;;;;14.25;4.32;;;;;;;4.07;77.45;102829.25;5074631;28;20523;-57
2022/02/12 10:20:54;;;;;;;10.15;3.17;;;;;;;4.38;77.32;102824.69;5070269;28;20203;-56
2022/02/12 10:23:24;;;;;;;11.98;3.80;;;;;;;4.38;77.16;102821.25;5072495;28;20591;-56
2022/02/12 10:26:08;;;;;;;13.50;3.55;;;;;;;4.70;76.42;102822.69;5074864;28;20044;-44
2022/02/12 10:28:38;;;;;;;13.10;3.92;;;;;;;4.75;73.86;102815.72;5071586;28;20480;-45
2022/02/12 10:31:07;;;;;;;10.68;3.50;;;;;;;4.74;74.42;102813.97;5071591;28;20064;-56
2022/02/12 10:33:42;;;;;;;13.88;4.15;;;;;;;4.80;73.08;102807.84;5074172;28;20045;-44
2022/02/12 10:36:15;;;;;;;14.38;3.88;;;;;;;5.04;73.12;102809.34;5071506;28;20075;-56
2022/02/12 10:38:48;;;;;;;8.88;3.40;;;;;;;5.19;73.05;102796.13;5070090;28;20119;-46
2022/02/12 10:41:18;;;;;;;9.52;3.47;;;;;;;5.73;72.03;102798.06;5073775;28;20048;-58
2022/02/12 10:43:50;;;;;;;10.38;3.25;;;;;;;5.51;70.55;102799.25;5074161;28;20048;-45
2022/02/12 10:46:19;;;;;;;9.95;3.10;;;;;;;5.67;69.46;102789.47;5074317;28;20094;-48
2022/02/12 10:48:50;;;;;;;8.10;2.78;;;;;;;5.77;69.44;102801.50;5074114;28;20041;-48
2022/02/12 10:51:19;;;;;;;11.82;3.90;;;;;;;5.88;69.41;102791.78;5074349;28;20095;-44
2022/02/12 10:54:05;;;;;;;9.57;3.22;;;;;;;5.47;70.34;102784.47;5073485;28;20097;-54
2022/02/12 10:56:45;;;;;;;12.20;3.35;;;;;;;5.47;70.24;102785.38;5069947;28;20058;-42
2022/02/12 10:59:16;;;;;;;10.27;3.42;;;;;;;5.37;69.64;102783.75;5072324;28;20049;-42
2022/02/12 11:01:44;;;;;;;9.48;3.30;;;;;;;5.46;69.58;102783.63;5074058;28;20040;-54
2022/02/12 11:04:14;;;;;;;11.73;3.40;;;;;;;5.73;69.73;102785.00;5074006;28;20041;-43
2022/02/12 11:06:45;;;;;;;11.68;3.00;;;;;;;5.79;68.71;102778.00;5073279;28;20075;-43
2022/02/12 11:09:15;;;;;;;11.85;3.53;;;;;;;6.26;67.61;102773.84;5069151;28;20056;-55
2022/02/12 11:11:43;;;;;;;9.85;2.92;;;;;;;6.17;66.74;102766.97;5072291;28;20056;-43
2022/02/12 11:14:13;;;;;;;10.18;2.95;;;;;;;6.06;67.26;102758.47;5073487;28;20072;-42
2022/02/12 11:16:43;;;;;;;9.90;2.85;;;;;;;5.88;68.13;102752.59;5070441;28;20506;-45
2022/02/12 11:19:11;;;;;;;15.13;3.45;;;;;;;5.86;66.57;102751.78;5071447;28;20045;-54
2022/02/12 11:21:40;;;;;;;10.15;3.03;;;;;;;5.80;67.62;102751.84;5072250;28;20052;-53
2022/02/12 11:24:11;;;;;;;14.57;3.22;;;;;;;6.16;67.70;102753.94;5073302;28;20048;-54